Time;durP1;ratioP1;P1;durP2;ratioP2;P2;SDS_P1;SDS_P2;PMS_P1;PMS_P2;Temp;Humidity;BMP_temperature;BMP_pressure;BME280_temperature;BME280_humidity;BME280_pressure;Samples;Min_cycle;Max_cycle;Signal;HPM_P1;HPM_P2
2021/07/09 00:02:21;;;;;;;13.83;5.60;;;;;;;13.74;nan;96896.34;3551744;40;20521;-73
2021/07/09 00:04:49;;;;;;;11.60;4.80;;;;;;;13.79;nan;96893.34;3553275;40;21006;-71
2021/07/09 00:07:17;;;;;;;7.27;4.27;;;;;;;13.72;nan;96893.00;3551330;40;20540;-72
2021/07/09 00:09:47;;;;;;;6.43;4.20;;;;;;;13.77;nan;96898.72;3560396;40;21121;-73
2021/07/09 00:12:15;;;;;;;8.23;5.07;;;;;;;13.77;nan;96905.78;3548406;40;20731;-73
2021/07/09 00:14:45;;;;;;;9.93;4.43;;;;;;;13.78;nan;96912.72;3547192;40;20566;-70
2021/07/09 00:17:13;;;;;;;5.73;4.50;;;;;;;13.81;nan;96915.13;3549115;40;20505;-70
2021/07/09 00:19:42;;;;;;;7.87;4.33;;;;;;;13.74;nan;96916.53;3550712;40;21583;-74
2021/07/09 00:22:11;;;;;;;7.20;4.60;;;;;;;13.73;nan;96934.13;3552686;40;20469;-71
2021/07/09 00:24:39;;;;;;;6.90;4.23;;;;;;;13.63;nan;96912.94;3548035;40;20458;-73
2021/07/09 00:27:08;;;;;;;10.17;5.43;;;;;;;13.68;nan;96917.03;3550340;40;20465;-73
2021/07/09 00:29:36;;;;;;;5.90;4.30;;;;;;;13.76;nan;96930.44;3548636;40;20486;-71
2021/07/09 00:32:06;;;;;;;9.10;4.13;;;;;;;13.83;nan;96929.84;3551671;40;21199;-71
2021/07/09 00:34:35;;;;;;;17.90;5.43;;;;;;;13.79;nan;96922.31;3549488;40;20912;-71
2021/07/09 00:37:03;;;;;;;8.13;4.50;;;;;;;13.78;nan;96925.88;3550758;40;20466;-74
2021/07/09 00:39:30;;;;;;;7.50;3.93;;;;;;;13.78;nan;96923.25;3551984;40;20464;-73
2021/07/09 00:41:58;;;;;;;6.27;4.23;;;;;;;13.79;nan;96920.50;3552422;40;20442;-73
2021/07/09 00:44:26;;;;;;;5.17;4.20;;;;;;;13.81;nan;96926.50;3550218;40;20824;-73
2021/07/09 00:46:54;;;;;;;8.90;4.43;;;;;;;13.80;nan;96929.25;3551464;40;20970;-72
2021/07/09 00:49:24;;;;;;;7.13;4.37;;;;;;;13.81;nan;96930.94;3546315;40;20451;-72
2021/07/09 00:51:51;;;;;;;6.17;4.60;;;;;;;13.81;nan;96930.94;3546822;40;20877;-72
2021/07/09 00:54:20;;;;;;;7.70;3.90;;;;;;;13.81;nan;96923.03;3546243;40;21036;-71
2021/07/09 00:56:48;;;;;;;5.17;4.13;;;;;;;13.84;nan;96934.16;3551746;40;20506;-72
2021/07/09 00:59:21;;;;;;;5.17;4.10;;;;;;;13.79;nan;96932.84;3548064;40;20460;-74
2021/07/09 01:01:50;;;;;;;5.90;4.00;;;;;;;13.74;nan;96919.19;3550273;40;20432;-74
2021/07/09 01:04:18;;;;;;;9.43;4.17;;;;;;;13.81;nan;96923.84;3548736;40;20452;-71
2021/07/09 01:06:47;;;;;;;7.77;3.30;;;;;;;13.80;nan;96921.38;3548508;40;20771;-71
2021/07/09 01:09:16;;;;;;;6.67;4.03;;;;;;;13.76;nan;96923.38;3553116;40;20552;-73
2021/07/09 01:11:48;;;;;;;6.10;3.50;;;;;;;13.72;nan;96916.69;3548725;40;20475;-72
2021/07/09 01:17:57;;;;;;;3.90;3.03;;;;;;;13.71;nan;96904.47;3544449;40;20895;-73
2021/07/09 01:20:26;;;;;;;9.30;3.53;;;;;;;13.67;nan;96910.09;3550758;40;20933;-72
2021/07/09 01:22:57;;;;;;;4.53;2.60;;;;;;;13.67;nan;96907.47;3553048;40;20452;-73
2021/07/09 01:25:28;;;;;;;6.97;3.30;;;;;;;13.60;nan;96905.31;3545800;40;20708;-73
2021/07/09 01:27:59;;;;;;;7.80;3.80;;;;;;;13.57;nan;96902.91;3546956;40;20565;-72
2021/07/09 01:30:28;;;;;;;5.47;3.40;;;;;;;13.60;nan;96896.53;3545792;40;20482;-72
2021/07/09 01:32:56;;;;;;;9.13;3.67;;;;;;;13.54;nan;96897.84;3554315;40;20736;-72
2021/07/09 01:35:26;;;;;;;6.70;2.93;;;;;;;13.56;nan;96893.31;3550336;40;20784;-71
2021/07/09 01:37:56;;;;;;;4.90;2.73;;;;;;;13.49;nan;96900.00;3549717;40;20534;-74
2021/07/09 01:40:26;;;;;;;4.00;3.20;;;;;;;13.47;nan;96904.56;3549622;40;20776;-73
2021/07/09 01:42:54;;;;;;;4.93;3.20;;;;;;;13.45;nan;96901.19;3554192;40;20791;-73
2021/07/09 01:45:23;;;;;;;6.30;3.20;;;;;;;13.41;nan;96899.75;3552688;40;20475;-71
2021/07/09 01:47:51;;;;;;;6.43;3.43;;;;;;;13.43;nan;96897.84;3546941;40;20513;-71
2021/07/09 01:50:21;;;;;;;5.60;3.20;;;;;;;13.43;nan;96903.13;3552545;40;20807;-71
2021/07/09 01:52:49;;;;;;;4.97;3.80;;;;;;;13.39;nan;96899.03;3546648;40;20572;-71
2021/07/09 01:55:18;;;;;;;8.97;4.37;;;;;;;13.36;nan;96905.34;3550488;40;21126;-73
2021/07/09 01:57:48;;;;;;;4.90;3.17;;;;;;;13.37;nan;96906.22;3553952;40;20821;-71
2021/07/09 02:00:18;;;;;;;5.20;3.90;;;;;;;13.34;nan;96903.78;3549234;40;21231;-72
2021/07/09 02:02:45;;;;;;;5.60;4.93;;;;;;;13.34;nan;96903.78;3557042;40;20565;-73
2021/07/09 02:05:16;;;;;;;7.00;3.63;;;;;;;13.34;nan;96901.16;3549036;40;20920;-73
2021/07/09 02:07:46;;;;;;;6.67;4.57;;;;;;;13.39;nan;96909.56;3550396;40;20884;-71
2021/07/09 02:10:17;;;;;;;10.50;3.77;;;;;;;13.30;nan;96902.34;3554289;40;21222;-73
2021/07/09 02:12:45;;;;;;;8.60;3.80;;;;;;;13.33;nan;96899.47;3551649;40;20957;-72
2021/07/09 02:15:16;;;;;;;8.07;4.17;;;;;;;13.25;nan;96892.97;3552301;40;20474;-72
2021/07/09 02:17:45;;;;;;;6.07;3.20;;;;;;;13.29;nan;96903.25;3544121;40;20793;-71
2021/07/09 02:20:16;;;;;;;4.87;3.63;;;;;;;13.30;nan;96903.19;3549874;40;20757;-72
2021/07/09 02:22:44;;;;;;;13.13;4.53;;;;;;;13.24;nan;96895.72;3551613;40;20819;-72
2021/07/09 02:25:14;;;;;;;12.87;4.27;;;;;;;13.27;nan;96898.13;3550702;40;20482;-72
2021/07/09 02:27:44;;;;;;;6.43;4.60;;;;;;;13.27;nan;96903.41;3546714;40;20436;-74
2021/07/09 02:30:17;;;;;;;4.67;3.67;;;;;;;13.19;nan;96895.22;3545342;40;20471;-73
2021/07/09 02:32:46;;;;;;;4.20;3.23;;;;;;;13.19;nan;96906.59;3546708;40;20832;-73
2021/07/09 02:35:17;;;;;;;4.73;3.40;;;;;;;13.15;nan;96899.03;3550659;40;20459;-75
2021/07/09 02:37:46;;;;;;;5.57;3.00;;;;;;;13.18;nan;96904.91;3549802;40;20522;-72
2021/07/09 02:40:17;;;;;;;6.83;2.67;;;;;;;13.17;nan;96910.28;3549601;40;20846;-73
2021/07/09 02:42:46;;;;;;;4.43;2.80;;;;;;;13.16;nan;96914.69;3548173;40;20915;-73
2021/07/09 02:45:17;;;;;;;4.83;3.07;;;;;;;13.13;nan;96914.09;3551438;40;20881;-73
2021/07/09 02:47:45;;;;;;;6.93;2.93;;;;;;;13.21;nan;96917.84;3551748;40;20572;-72
2021/07/09 02:50:17;;;;;;;4.20;3.20;;;;;;;13.17;nan;96912.91;3550925;40;20555;-73
2021/07/09 02:52:45;;;;;;;5.97;3.43;;;;;;;13.12;nan;96913.25;3555789;40;20802;-75
2021/07/09 02:55:15;;;;;;;5.87;3.67;;;;;;;13.11;nan;96916.00;3547611;40;20920;-74
2021/07/09 02:57:43;;;;;;;7.00;3.50;;;;;;;13.12;nan;96913.25;3549167;40;20454;-72
2021/07/09 03:00:13;;;;;;;5.10;3.70;;;;;;;13.10;nan;96911.69;3551583;40;20932;-74
2021/07/09 03:02:43;;;;;;;4.83;3.93;;;;;;;13.04;nan;96911.19;3552940;40;20467;-73
2021/07/09 03:05:13;;;;;;;9.13;4.20;;;;;;;13.07;nan;96904.84;3549345;40;20521;-75
2021/07/09 03:07:41;;;;;;;6.10;3.77;;;;;;;13.08;nan;96909.19;3549525;40;20444;-75
2021/07/09 03:10:11;;;;;;;10.63;3.60;;;;;;;13.05;nan;96905.00;3550755;40;20570;-72
2021/07/09 03:12:39;;;;;;;8.70;3.63;;;;;;;13.08;nan;96909.19;3550954;40;21211;-73
2021/07/09 03:15:09;;;;;;;6.30;4.23;;;;;;;13.11;nan;96916.00;3548657;40;20449;-74
2021/07/09 03:17:38;;;;;;;4.73;3.60;;;;;;;13.12;nan;96909.78;3548016;40;20862;-75
2021/07/09 03:20:10;;;;;;;14.30;3.77;;;;;;;13.12;nan;96913.25;3548272;40;20712;-71
2021/07/09 03:22:39;;;;;;;4.50;3.43;;;;;;;13.13;nan;96920.19;3550513;40;20464;-71
2021/07/09 03:25:09;;;;;;;12.37;5.13;;;;;;;13.13;nan;96922.84;3552408;40;20563;-72
2021/07/09 03:27:37;;;;;;;10.27;4.90;;;;;;;13.18;nan;96923.31;3550187;40;20932;-75
2021/07/09 03:30:06;;;;;;;6.10;3.30;;;;;;;13.12;nan;96923.78;3548686;40;20456;-74
2021/07/09 03:32:34;;;;;;;7.50;3.90;;;;;;;13.09;nan;96926.63;3546440;40;20494;-71
2021/07/09 03:35:02;;;;;;;5.23;3.70;;;;;;;13.11;nan;96927.34;3548731;40;20942;-71
2021/07/09 03:37:31;;;;;;;4.77;3.40;;;;;;;13.09;nan;96939.75;3551986;40;20783;-71
2021/07/09 03:39:59;;;;;;;7.73;3.73;;;;;;;13.07;nan;96928.50;3549784;40;20768;-73
2021/07/09 03:42:27;;;;;;;4.33;3.60;;;;;;;13.05;nan;96933.91;3549766;40;20470;-71
2021/07/09 03:44:54;;;;;;;5.60;3.67;;;;;;;13.05;nan;96940.94;3548770;40;20755;-71
2021/07/09 03:47:22;;;;;;;4.57;3.23;;;;;;;13.09;nan;96931.88;3550466;40;20868;-70
2021/07/09 03:49:50;;;;;;;5.77;3.93;;;;;;;13.04;nan;96934.03;3552460;40;20983;-70
2021/07/09 03:52:18;;;;;;;8.87;3.50;;;;;;;13.03;nan;96940.22;3552580;40;20745;-72
2021/07/09 03:54:48;;;;;;;12.97;4.20;;;;;;;13.02;nan;96936.75;3546807;40;20793;-72
2021/07/09 03:57:16;;;;;;;9.77;5.00;;;;;;;13.08;nan;96940.72;3549947;40;20563;-71
2021/07/09 03:59:44;;;;;;;7.73;4.10;;;;;;;13.03;nan;96937.59;3549662;40;20469;-70
2021/07/09 04:02:12;;;;;;;10.33;3.93;;;;;;;12.98;nan;96943.19;3553147;40;20491;-69
2021/07/09 04:04:40;;;;;;;11.50;4.10;;;;;;;12.99;nan;96951.91;3549370;40;20999;-70
2021/07/09 04:07:08;;;;;;;7.63;3.00;;;;;;;12.94;nan;96940.91;3546733;40;20769;-70
2021/07/09 04:09:36;;;;;;;9.17;3.37;;;;;;;12.91;nan;96949.84;3547055;40;20475;-72
2021/07/09 04:12:06;;;;;;;7.10;3.90;;;;;;;12.86;nan;96944.91;3548285;40;20468;-72
2021/07/09 04:14:34;;;;;;;5.47;3.97;;;;;;;12.89;nan;96953.53;3552057;40;20815;-72
2021/07/09 04:17:02;;;;;;;4.83;3.47;;;;;;;12.90;nan;96949.94;3547873;40;21028;-72
2021/07/09 04:19:30;;;;;;;3.73;3.10;;;;;;;12.88;nan;96962.34;3554387;40;21107;-72
2021/07/09 04:21:58;;;;;;;3.63;2.80;;;;;;;12.87;nan;96956.25;3547908;40;20935;-73
2021/07/09 04:24:26;;;;;;;5.53;3.10;;;;;;;12.80;nan;96958.50;3546935;40;20692;-74
2021/07/09 04:26:54;;;;;;;9.33;3.40;;;;;;;12.82;nan;96953.97;3553939;40;20516;-73
2021/07/09 04:29:23;;;;;;;10.57;3.43;;;;;;;12.85;nan;96956.38;3551117;40;20447;-71
2021/07/09 04:31:54;;;;;;;5.67;3.00;;;;;;;12.78;nan;96965.66;3549918;40;20494;-74
2021/07/09 04:34:22;;;;;;;5.20;2.90;;;;;;;12.83;nan;96974.03;3547612;40;20863;-71
2021/07/09 04:36:50;;;;;;;5.70;3.50;;;;;;;12.75;nan;96957.16;3550608;40;20443;-73
2021/07/09 04:39:18;;;;;;;4.83;3.40;;;;;;;12.86;nan;96965.94;3551769;40;20445;-74
2021/07/09 04:41:46;;;;;;;5.50;2.77;;;;;;;12.88;nan;96968.47;3549365;40;20460;-72
2021/07/09 04:44:15;;;;;;;6.80;3.70;;;;;;;12.88;nan;96970.22;3548343;40;20452;-72
2021/07/09 04:46:44;;;;;;;5.67;3.40;;;;;;;12.84;nan;96967.03;3549374;40;20552;-74
2021/07/09 04:49:12;;;;;;;6.70;3.67;;;;;;;12.94;nan;96967.19;3548938;40;20834;-74
2021/07/09 04:51:40;;;;;;;6.30;3.90;;;;;;;12.95;nan;96971.47;3553664;40;20502;-71
2021/07/09 04:54:08;;;;;;;6.97;3.33;;;;;;;12.90;nan;96965.72;3548644;40;20481;-72
2021/07/09 04:56:36;;;;;;;6.60;3.90;;;;;;;12.91;nan;96977.91;3548132;40;20532;-72
2021/07/09 04:59:04;;;;;;;10.30;3.40;;;;;;;12.99;nan;96986.91;3551766;40;20440;-73
2021/07/09 05:01:34;;;;;;;4.23;3.00;;;;;;;13.02;nan;96986.69;3550169;40;20478;-72
2021/07/09 05:04:05;;;;;;;6.10;2.60;;;;;;;12.98;nan;96987.88;3553237;40;20447;-72
2021/07/09 05:06:33;;;;;;;3.53;3.10;;;;;;;12.97;nan;96994.06;3548929;40;20904;-71
2021/07/09 05:09:01;;;;;;;4.43;3.30;;;;;;;12.96;nan;96992.41;3547046;40;20442;-70
2021/07/09 05:11:29;;;;;;;4.40;3.33;;;;;;;13.02;nan;96993.75;3552347;40;20537;-76
2021/07/09 05:13:57;;;;;;;8.43;3.90;;;;;;;13.13;nan;96995.59;3547408;40;20560;-74
2021/07/09 05:16:26;;;;;;;21.00;3.80;;;;;;;13.02;nan;96991.13;3555089;40;20728;-74
2021/07/09 05:18:56;;;;;;;3.83;3.27;;;;;;;13.03;nan;96988.41;3547923;40;20926;-73
2021/07/09 05:21:26;;;;;;;5.83;3.60;;;;;;;13.03;nan;97003.31;3550458;40;20898;-74
2021/07/09 05:23:54;;;;;;;9.27;4.77;;;;;;;13.16;nan;97000.63;3549598;40;21114;-74
2021/07/09 05:26:22;;;;;;;5.07;3.87;;;;;;;13.17;nan;96986.53;3548618;40;21015;-74
2021/07/09 05:28:50;;;;;;;6.93;4.30;;;;;;;13.31;nan;97011.84;3552061;40;20571;-74
2021/07/09 05:31:19;;;;;;;4.83;3.93;;;;;;;13.30;nan;97010.19;3551565;40;20897;-72
2021/07/09 05:33:47;;;;;;;8.93;4.17;;;;;;;13.22;nan;97011.53;3551924;40;20708;-74
2021/07/09 05:36:15;;;;;;;5.10;3.93;;;;;;;13.22;nan;97010.72;3549522;40;20856;-71
2021/07/09 05:38:44;;;;;;;22.47;16.13;;;;;;;13.19;nan;97014.41;3553034;40;20567;-71
2021/07/09 05:41:12;;;;;;;10.30;6.37;;;;;;;13.08;nan;97013.50;3555362;40;20464;-72
2021/07/09 05:43:40;;;;;;;8.60;4.03;;;;;;;13.14;nan;97027.03;3553512;40;20991;-70
2021/07/09 05:46:08;;;;;;;5.27;3.97;;;;;;;13.12;nan;97017.59;3554511;40;20482;-73
2021/07/09 05:48:36;;;;;;;6.53;4.20;;;;;;;13.29;nan;97018.97;3555397;40;20468;-71
2021/07/09 05:51:05;;;;;;;9.10;5.30;;;;;;;13.36;nan;97023.72;3553455;40;20478;-70
2021/07/09 05:53:33;;;;;;;8.60;4.87;;;;;;;13.27;nan;97032.25;3551178;40;20496;-71
2021/07/09 05:56:02;;;;;;;8.00;5.33;;;;;;;13.30;nan;97023.34;3553244;40;20962;-73
2021/07/09 05:58:30;;;;;;;12.40;4.90;;;;;;;13.35;nan;97026.44;3552065;40;20471;-75
2021/07/09 06:00:58;;;;;;;10.13;4.57;;;;;;;13.43;nan;97021.50;3548673;40;20528;-70
2021/07/09 06:03:26;;;;;;;7.70;4.07;;;;;;;13.44;nan;97028.41;3548288;40;20843;-71
2021/07/09 06:05:54;;;;;;;7.20;5.00;;;;;;;13.56;nan;97029.31;3554018;40;20552;-73
2021/07/09 06:08:22;;;;;;;9.23;3.83;;;;;;;13.64;nan;97035.69;3549290;40;20958;-73
2021/07/09 06:10:50;;;;;;;9.17;4.63;;;;;;;13.65;nan;97039.16;3548285;40;20476;-71
2021/07/09 06:13:19;;;;;;;7.50;4.50;;;;;;;13.69;nan;97030.06;3556718;40;20778;-71
2021/07/09 06:15:47;;;;;;;5.10;3.97;;;;;;;13.78;nan;97036.44;3548370;40;20466;-71
2021/07/09 06:18:18;;;;;;;8.67;5.90;;;;;;;13.88;nan;97034.81;3550553;40;20457;-73
2021/07/09 06:20:46;;;;;;;7.17;4.40;;;;;;;13.96;nan;97034.22;3550148;40;20854;-75
2021/07/09 06:23:16;;;;;;;5.80;4.20;;;;;;;14.08;nan;97040.38;3550992;40;21158;-71
2021/07/09 06:25:44;;;;;;;12.47;5.40;;;;;;;14.11;nan;97040.13;3552446;40;20463;-72
2021/07/09 06:28:13;;;;;;;15.90;4.63;;;;;;;14.21;nan;97038.44;3551693;40;20554;-71
2021/07/09 06:30:42;;;;;;;5.60;3.53;;;;;;;14.28;nan;97039.66;3551882;40;20481;-71
2021/07/09 06:33:12;;;;;;;7.30;4.40;;;;;;;14.40;nan;97035.25;3553902;40;20446;-71
2021/07/09 06:35:42;;;;;;;5.40;4.30;;;;;;;14.42;nan;97041.25;3552053;40;20467;-74
2021/07/09 06:38:10;;;;;;;6.97;4.63;;;;;;;14.51;nan;97043.16;3552101;40;20436;-73
2021/07/09 06:40:38;;;;;;;8.83;4.03;;;;;;;14.60;nan;97047.75;3552956;40;20496;-74
2021/07/09 06:43:06;;;;;;;7.93;4.80;;;;;;;14.78;nan;97053.38;3555709;40;20454;-73
2021/07/09 06:45:34;;;;;;;8.30;5.27;;;;;;;14.75;nan;97047.50;3552952;40;20464;-73
2021/07/09 06:48:04;;;;;;;10.00;5.20;;;;;;;14.71;nan;97051.34;3547989;40;20662;-72
2021/07/09 06:50:32;;;;;;;9.60;5.17;;;;;;;14.88;nan;97042.97;3547356;40;20463;-71
2021/07/09 06:53:00;;;;;;;6.73;4.57;;;;;;;15.06;nan;97048.56;3548235;40;20800;-72
2021/07/09 06:55:28;;;;;;;5.57;4.40;;;;;;;15.33;nan;97055.22;3552224;40;20835;-71
2021/07/09 06:57:56;;;;;;;7.03;3.60;;;;;;;15.48;nan;97053.13;3551195;40;20527;-73
2021/07/09 07:00:25;;;;;;;5.50;4.07;;;;;;;15.59;nan;97059.22;3550802;40;20859;-72
2021/07/09 07:02:53;;;;;;;5.03;3.33;;;;;;;15.74;nan;97051.00;3554427;40;20891;-74
2021/07/09 07:05:22;;;;;;;4.27;3.37;;;;;;;15.96;nan;97056.22;3550030;40;20875;-73
2021/07/09 07:07:50;;;;;;;5.00;3.50;;;;;;;16.13;nan;97059.22;3552713;40;20544;-71
2021/07/09 07:10:18;;;;;;;11.03;3.83;;;;;;;16.10;nan;97046.28;3548800;40;20467;-73
2021/07/09 07:12:47;;;;;;;7.80;3.57;;;;;;;15.79;nan;97057.59;3548117;40;20928;-73
2021/07/09 07:15:15;;;;;;;6.77;3.70;;;;;;;15.70;nan;97065.41;3549966;40;20704;-71
2021/07/09 07:17:43;;;;;;;9.63;3.67;;;;;;;15.48;nan;97061.88;3550249;40;20554;-74
2021/07/09 07:20:12;;;;;;;4.83;3.27;;;;;;;15.51;nan;97060.81;3552630;40;20675;-71
2021/07/09 07:22:41;;;;;;;5.03;3.70;;;;;;;15.57;nan;97065.59;3550385;40;20779;-75
2021/07/09 07:25:11;;;;;;;4.27;3.87;;;;;;;15.74;nan;97069.50;3550308;40;20566;-70
2021/07/09 07:27:39;;;;;;;4.07;3.57;;;;;;;15.67;nan;97070.97;3549423;40;20755;-74
2021/07/09 07:30:08;;;;;;;6.93;4.07;;;;;;;15.80;nan;97080.41;3552273;40;20489;-73
2021/07/09 07:32:36;;;;;;;11.43;4.13;;;;;;;15.86;nan;97071.16;3553986;40;20454;-71
2021/07/09 07:35:05;;;;;;;6.33;3.40;;;;;;;15.96;nan;97074.69;3552170;40;20474;-73
2021/07/09 07:37:32;;;;;;;4.80;3.73;;;;;;;16.06;nan;97073.94;3554254;40;20447;-72
2021/07/09 07:40:02;;;;;;;4.43;4.03;;;;;;;16.39;nan;97072.91;3556360;40;20905;-71
2021/07/09 07:42:32;;;;;;;4.40;3.40;;;;;;;16.29;nan;97072.84;3553530;40;20695;-71
2021/07/09 07:45:00;;;;;;;8.00;3.80;;;;;;;16.38;nan;97066.75;3553072;40;20877;-70
2021/07/09 07:47:28;;;;;;;11.20;5.00;;;;;;;16.63;nan;97077.91;3551276;40;20852;-70
2021/07/09 07:49:56;;;;;;;6.33;3.60;;;;;;;16.85;nan;97074.25;3550816;40;20933;-73
2021/07/09 07:52:24;;;;;;;9.80;4.40;;;;;;;16.83;nan;97070.91;3549168;40;20478;-70
2021/07/09 07:54:52;;;;;;;8.50;4.10;;;;;;;17.12;nan;97075.47;3549570;40;20673;-72
2021/07/09 07:57:21;;;;;;;7.17;3.73;;;;;;;17.07;nan;97073.25;3550943;40;20471;-71
2021/07/09 07:59:49;;;;;;;13.37;3.80;;;;;;;16.76;nan;97073.22;3549472;40;20860;-71
2021/07/09 08:02:17;;;;;;;8.80;3.53;;;;;;;17.27;nan;97070.63;3547155;40;20910;-70
2021/07/09 08:04:47;;;;;;;8.33;2.80;;;;;;;17.18;nan;97073.13;3548591;40;20478;-72
2021/07/09 08:07:15;;;;;;;8.50;4.00;;;;;;;17.24;nan;97065.63;3551568;40;20454;-73
2021/07/09 08:09:43;;;;;;;8.73;3.50;;;;;;;17.13;nan;97067.41;3551359;40;20787;-71
2021/07/09 08:12:12;;;;;;;6.50;3.60;;;;;;;16.99;nan;97065.97;3548362;40;20521;-72
2021/07/09 08:14:41;;;;;;;4.83;3.80;;;;;;;17.61;nan;97070.28;3545888;40;20474;-70
2021/07/09 08:17:09;;;;;;;7.40;3.53;;;;;;;17.70;nan;97066.78;3549377;40;20869;-72
2021/07/09 08:19:38;;;;;;;7.90;3.90;;;;;;;18.15;nan;97068.91;3551147;40;20831;-73
2021/07/09 08:22:06;;;;;;;9.67;5.63;;;;;;;18.45;nan;97069.72;3550076;40;20840;-72
2021/07/09 08:24:34;;;;;;;6.53;3.63;;;;;;;19.02;nan;97062.53;3547884;40;20464;-71
2021/07/09 08:27:02;;;;;;;6.23;4.33;;;;;;;19.40;nan;97063.31;3547246;40;20553;-69
2021/07/09 08:29:30;;;;;;;6.70;3.63;;;;;;;18.99;nan;97052.22;3546351;40;20481;-72
2021/07/09 08:31:59;;;;;;;7.40;3.73;;;;;;;19.53;nan;97068.25;3547667;40;20467;-70
2021/07/09 08:34:27;;;;;;;6.20;3.10;;;;;;;19.03;nan;97063.38;3552544;40;20463;-71
2021/07/09 08:36:55;;;;;;;3.50;2.73;;;;;;;19.45;nan;97062.88;3550651;40;21146;-70
2021/07/09 08:39:23;;;;;;;7.20;3.63;;;;;;;19.06;nan;97047.16;3547430;40;20537;-72
2021/07/09 08:41:55;;;;;;;7.80;3.20;;;;;;;19.41;nan;97066.81;3549479;40;20897;-71
2021/07/09 08:44:24;;;;;;;8.03;3.90;;;;;;;19.09;nan;97068.94;3551633;40;20738;-70
2021/07/09 08:46:56;;;;;;;6.93;3.73;;;;;;;19.35;nan;97068.25;3551003;40;20497;-70
2021/07/09 08:49:26;;;;;;;6.87;4.17;;;;;;;19.63;nan;97068.19;3548809;40;20452;-70
2021/07/09 08:51:54;;;;;;;4.43;3.60;;;;;;;19.32;nan;97071.19;3548660;40;20836;-73
2021/07/09 08:54:22;;;;;;;7.20;4.23;;;;;;;19.28;nan;97069.81;3547068;40;20494;-70
2021/07/09 08:56:51;;;;;;;6.60;3.63;;;;;;;19.33;nan;97065.72;3550689;40;20464;-70
2021/07/09 08:59:20;;;;;;;6.73;3.47;;;;;;;20.13;nan;97065.88;3545870;40;20915;-71
2021/07/09 09:01:51;;;;;;;8.90;4.20;;;;;;;20.25;nan;97076.25;3547669;40;20452;-72
2021/07/09 09:04:27;;;;;;;8.63;4.03;;;;;;;20.19;nan;97077.72;3548198;40;20459;-72
2021/07/09 09:07:03;;;;;;;6.17;3.83;;;;;;;20.14;nan;97085.28;3548370;40;20468;-73
2021/07/09 09:09:33;;;;;;;18.10;4.87;;;;;;;19.50;nan;97088.00;3546630;40;20457;-70
2021/07/09 09:12:07;;;;;;;11.40;3.60;;;;;;;19.33;nan;97083.50;3554696;40;21159;-71
2021/07/09 09:14:36;;;;;;;7.93;3.77;;;;;;;19.76;nan;97095.28;3547020;40;20790;-71
2021/07/09 09:17:27;;;;;;;5.20;3.50;;;;;;;20.19;nan;97095.47;3550363;40;20491;-71
2021/07/09 09:20:14;;;;;;;10.00;4.20;;;;;;;20.93;nan;97083.50;3555321;40;20462;-72
2021/07/09 09:22:56;;;;;;;12.63;4.40;;;;;;;21.52;nan;97088.94;3551817;40;20859;-72
2021/07/09 09:25:25;;;;;;;6.20;4.60;;;;;;;20.98;nan;97089.22;3549156;40;20470;-74
2021/07/09 09:28:01;;;;;;;12.83;5.00;;;;;;;21.61;nan;97089.81;3548785;40;20471;-72
2021/07/09 09:30:30;;;;;;;9.03;4.73;;;;;;;21.80;nan;97084.19;3550554;40;20766;-71
2021/07/09 09:33:02;;;;;;;7.43;4.93;;;;;;;21.98;nan;97075.22;3547472;40;20780;-71
2021/07/09 09:35:34;;;;;;;6.13;4.93;;;;;;;21.96;nan;97082.53;3550105;40;20565;-72
2021/07/09 09:38:04;;;;;;;6.13;5.07;;;;;;;21.61;nan;97081.81;3544644;40;20542;-72
2021/07/09 09:40:34;;;;;;;7.17;5.30;;;;;;;21.52;nan;97083.59;3544690;40;20460;-74
2021/07/09 09:43:07;;;;;;;11.43;5.57;;;;;;;21.38;nan;97085.03;3554335;40;20541;-74
2021/07/09 09:45:36;;;;;;;12.70;6.50;;;;;;;21.25;nan;97077.50;3549010;40;20799;-73
2021/07/09 09:48:06;;;;;;;11.33;6.83;;;;;;;20.26;nan;97096.53;3549821;40;20540;-73
2021/07/09 09:50:45;;;;;;;11.60;5.30;;;;;;;20.08;nan;97096.56;3546478;40;20799;-73
2021/07/09 09:53:13;;;;;;;6.23;5.20;;;;;;;19.53;nan;97092.16;3545074;40;20839;-72
2021/07/09 09:55:42;;;;;;;14.47;6.87;;;;;;;19.09;nan;97099.94;3552305;40;20840;-73
2021/07/09 09:58:12;;;;;;;10.40;5.17;;;;;;;18.70;nan;97086.78;3547014;40;20811;-71
2021/07/09 10:00:42;;;;;;;10.43;5.30;;;;;;;19.14;nan;97098.53;3549644;40;20500;-72
2021/07/09 10:03:19;;;;;;;11.70;5.90;;;;;;;18.92;nan;97089.13;3549473;40;20440;-73
2021/07/09 10:05:50;;;;;;;16.73;5.47;;;;;;;19.03;nan;97093.38;3551530;40;20864;-71
2021/07/09 10:08:19;;;;;;;11.43;6.73;;;;;;;19.08;nan;97085.00;3545572;40;20762;-69
2021/07/09 10:10:48;;;;;;;10.43;6.83;;;;;;;18.90;nan;97087.59;3544872;40;20480;-73
2021/07/09 10:13:18;;;;;;;11.33;6.87;;;;;;;19.99;nan;97094.78;3546568;40;20933;-71
2021/07/09 10:15:48;;;;;;;9.20;6.47;;;;;;;19.70;nan;97087.88;3546741;40;20903;-70
2021/07/09 10:18:17;;;;;;;12.07;7.07;;;;;;;19.46;nan;97078.63;3547932;40;20707;-70
2021/07/09 10:20:47;;;;;;;11.40;6.73;;;;;;;19.90;nan;97089.41;3548118;40;20754;-70
2021/07/09 10:23:19;;;;;;;9.90;6.70;;;;;;;21.05;nan;97084.94;3550740;40;20500;-69
2021/07/09 10:25:49;;;;;;;11.47;7.33;;;;;;;21.27;nan;97088.84;3549943;40;20462;-72
2021/07/09 10:28:20;;;;;;;12.50;6.40;;;;;;;21.44;nan;97078.25;3545384;40;21319;-72
2021/07/09 10:30:50;;;;;;;12.10;7.10;;;;;;;21.85;nan;97076.50;3544602;40;20479;-71
2021/07/09 10:33:29;;;;;;;11.43;5.60;;;;;;;21.87;nan;97076.34;3548518;40;20680;-71
2021/07/09 10:36:00;;;;;;;10.30;5.90;;;;;;;22.45;nan;97069.22;3544854;40;20547;-71
2021/07/09 10:38:38;;;;;;;11.17;5.97;;;;;;;21.56;nan;97070.78;3545358;40;20466;-71
2021/07/09 10:41:12;;;;;;;8.53;5.10;;;;;;;22.06;nan;97075.22;3548275;40;20907;-73
2021/07/09 10:43:40;;;;;;;9.60;5.27;;;;;;;22.32;nan;97077.72;3545337;40;20719;-71
2021/07/09 10:46:09;;;;;;;7.03;4.90;;;;;;;22.73;nan;97079.50;3547766;40;20933;-72
2021/07/09 10:48:38;;;;;;;10.70;5.87;;;;;;;22.81;nan;97082.97;3551161;40;20831;-73
2021/07/09 10:51:06;;;;;;;10.63;6.23;;;;;;;22.93;nan;97079.97;3550564;40;20878;-71
2021/07/09 10:53:35;;;;;;;9.03;5.97;;;;;;;23.53;nan;97070.56;3548565;40;20816;-72
2021/07/09 10:56:07;;;;;;;6.60;5.00;;;;;;;23.42;nan;97064.59;3545658;40;20832;-71
2021/07/09 10:58:41;;;;;;;7.00;5.30;;;;;;;22.49;nan;97073.22;3545644;40;20462;-73
2021/07/09 11:01:21;;;;;;;8.97;5.93;;;;;;;22.23;nan;97063.53;3550918;40;20712;-74
2021/07/09 11:03:51;;;;;;;8.90;5.00;;;;;;;22.42;nan;97064.22;3551046;40;21176;-72
2021/07/09 11:06:38;;;;;;;6.50;4.93;;;;;;;22.28;nan;97063.88;3550147;40;20733;-71
2021/07/09 11:09:13;;;;;;;8.47;5.30;;;;;;;22.02;nan;97049.88;3550165;40;20749;-73
2021/07/09 11:11:47;;;;;;;10.30;5.63;;;;;;;22.93;nan;97058.59;3551266;40;20857;-72
2021/07/09 11:14:22;;;;;;;9.90;5.80;;;;;;;23.67;nan;97064.44;3552657;40;20870;-72
2021/07/09 11:16:59;;;;;;;6.80;4.50;;;;;;;23.47;nan;97061.41;3550988;40;20479;-73
2021/07/09 11:19:33;;;;;;;11.10;5.97;;;;;;;23.67;nan;97054.59;3546451;40;20723;-72
2021/07/09 11:22:08;;;;;;;11.10;4.87;;;;;;;23.42;nan;97040.56;3552146;40;20468;-70
2021/07/09 11:24:43;;;;;;;24.50;4.90;;;;;;;24.19;nan;97061.09;3549215;40;20712;-72
2021/07/09 11:27:16;;;;;;;6.43;4.27;;;;;;;23.51;nan;97053.88;3547823;40;20906;-71
2021/07/09 11:29:50;;;;;;;5.87;4.03;;;;;;;22.52;nan;97056.84;3549553;40;20489;-71
2021/07/09 11:32:20;;;;;;;9.20;3.60;;;;;;;23.25;nan;97049.66;3552008;40;20756;-73
2021/07/09 11:34:49;;;;;;;4.93;3.37;;;;;;;22.83;nan;97046.28;3551575;40;20573;-71
2021/07/09 11:37:19;;;;;;;6.17;3.20;;;;;;;23.12;nan;97052.88;3553038;40;20724;-73
2021/07/09 11:39:50;;;;;;;4.70;2.67;;;;;;;23.53;nan;97047.34;3550968;40;20518;-70
2021/07/09 11:42:19;;;;;;;5.37;3.30;;;;;;;23.27;nan;97045.81;3547425;40;20493;-72
2021/07/09 11:44:49;;;;;;;24.43;3.93;;;;;;;23.97;nan;97044.06;3548762;40;20766;-71
2021/07/09 11:47:19;;;;;;;12.10;5.90;;;;;;;24.65;nan;97052.16;3549403;40;20544;-70
2021/07/09 11:49:49;;;;;;;2.40;2.20;;;;;;;24.57;nan;97050.41;3551415;40;20463;-71
2021/07/09 11:52:21;;;;;;;4.20;2.40;;;;;;;24.51;nan;97053.00;3556721;40;20472;-71
2021/07/09 11:54:51;;;;;;;3.30;2.53;;;;;;;24.58;nan;97048.56;3548129;40;20856;-71
2021/07/09 11:57:21;;;;;;;3.67;2.87;;;;;;;23.41;nan;97041.56;3548582;40;21283;-72
2021/07/09 12:00:09;;;;;;;4.90;2.90;;;;;;;24.14;nan;97036.72;3547283;40;20808;-73
2021/07/09 12:02:37;;;;;;;11.43;3.10;;;;;;;23.94;nan;97043.59;3552344;40;20487;-72
2021/07/09 12:05:07;;;;;;;5.70;3.53;;;;;;;24.51;nan;97051.13;3549966;40;20715;-71